createdAt,value
2018-04-25T00:02:24.508Z,91.50
2018-04-25T00:04:52.150Z,91.00
2018-04-25T00:07:19.666Z,90.70
2018-04-25T00:09:47.244Z,90.60
2018-04-25T00:12:14.740Z,90.30
2018-04-25T00:14:42.252Z,90.10
2018-04-25T00:17:09.854Z,90.00
2018-04-25T00:19:37.371Z,89.60
2018-04-25T00:22:04.909Z,89.50
2018-04-25T00:24:33.798Z,89.20
2018-04-25T00:27:02.101Z,89.00
2018-04-25T00:29:29.668Z,88.90
2018-04-25T00:31:57.280Z,88.90
2018-04-25T00:34:24.810Z,89.00
2018-04-25T00:36:52.369Z,88.80
2018-04-25T00:39:19.954Z,88.20
2018-04-25T00:41:47.487Z,87.90
2018-04-25T00:44:15.016Z,88.20
2018-04-25T00:46:42.530Z,88.00
2018-04-25T00:49:10.776Z,87.70
2018-04-25T00:51:38.294Z,87.70
2018-04-25T00:54:06.581Z,87.30
2018-04-25T00:56:34.090Z,87.30
2018-04-25T00:59:02.513Z,87.00
2018-04-25T01:01:30.033Z,86.90
2018-04-25T01:03:57.589Z,86.70
2018-04-25T01:06:25.076Z,86.80
2018-04-25T01:08:53.346Z,87.00
2018-04-25T01:11:21.683Z,86.80
2018-04-25T01:13:49.251Z,86.70
2018-04-25T01:16:16.773Z,86.70
2018-04-25T01:18:44.308Z,87.00
2018-04-25T01:21:11.823Z,87.00
2018-04-25T01:23:39.316Z,86.70
2018-04-25T01:26:08.198Z,86.70
2018-04-25T01:28:48.285Z,86.90
2018-04-25T01:31:19.430Z,86.90
2018-04-25T01:33:57.506Z,86.80
2018-04-25T01:39:25.656Z,86.20
2018-04-25T01:41:53.168Z,86.20
2018-04-25T01:44:37.440Z,85.90
2018-04-25T01:47:16.701Z,86.00
2018-04-25T01:49:50.740Z,85.60
2018-04-25T01:52:30.033Z,85.40
2018-04-25T01:55:09.544Z,85.10
2018-04-25T01:57:49.473Z,84.50
2018-04-25T02:00:29.761Z,84.00
2018-04-25T02:02:56.753Z,84.00
2018-04-25T02:05:24.600Z,83.90
2018-04-25T02:07:52.187Z,83.90
2018-04-25T02:10:19.779Z,83.70
2018-04-25T02:12:47.299Z,83.50
2018-04-25T02:15:14.900Z,83.40
2018-04-25T02:17:42.432Z,83.30
2018-04-25T02:20:10.008Z,83.20
2018-04-25T02:22:38.277Z,83.10
2018-04-25T02:25:06.555Z,82.70
2018-04-25T02:27:34.823Z,82.90
2018-04-25T02:30:02.326Z,82.80
2018-04-25T02:32:29.843Z,83.50
2018-04-25T02:34:57.319Z,82.70
2018-04-25T02:37:25.600Z,82.80
2018-04-25T02:39:53.878Z,82.90
2018-04-25T02:42:21.412Z,82.80
2018-04-25T02:44:48.918Z,82.80
2018-04-25T02:47:16.407Z,82.50
2018-04-25T02:49:44.730Z,82.70
2018-04-25T02:52:12.982Z,82.70
2018-04-25T02:54:41.279Z,82.90
2018-04-25T02:57:09.166Z,82.70
2018-04-25T02:59:36.673Z,82.80
2018-04-25T03:02:04.271Z,83.20
2018-04-25T03:04:32.536Z,83.30
2018-04-25T03:07:00.847Z,83.40
2018-04-25T03:09:28.380Z,83.30
2018-04-25T03:11:55.929Z,83.60
2018-04-25T03:14:24.233Z,83.60
2018-04-25T03:16:51.823Z,83.60
2018-04-25T03:19:19.347Z,83.80
2018-04-25T03:21:46.840Z,84.00
2018-04-25T03:24:14.335Z,83.80
2018-04-25T03:26:42.621Z,84.10
2018-04-25T03:29:10.856Z,83.90
2018-04-25T03:31:38.686Z,83.90
2018-04-25T03:34:06.179Z,84.00
2018-04-25T03:36:33.675Z,84.10
2018-04-25T03:39:02.033Z,84.30
2018-04-25T03:41:29.611Z,84.30
2018-04-25T03:43:58.222Z,84.50
2018-04-25T03:46:25.704Z,84.30
2018-04-25T03:48:53.215Z,84.40
2018-04-25T03:51:21.501Z,85.00
2018-04-25T03:53:49.015Z,84.80
2018-04-25T03:56:16.565Z,84.80
2018-04-25T03:58:44.125Z,84.90
2018-04-25T04:01:11.622Z,84.90
2018-04-25T04:03:39.937Z,85.00
2018-04-25T04:06:07.439Z,84.90
2018-04-25T04:08:35.024Z,85.10
2018-04-25T04:11:02.516Z,85.40
2018-04-25T04:13:30.020Z,85.20
2018-04-25T04:15:57.527Z,90.30
2018-04-25T04:18:25.076Z,85.20
2018-04-25T04:20:52.565Z,85.30
2018-04-25T04:23:20.157Z,85.20
2018-04-25T04:25:48.437Z,85.10
2018-04-25T04:28:16.760Z,85.60
2018-04-25T04:30:44.293Z,85.50
2018-04-25T04:33:11.807Z,85.80
2018-04-25T04:35:39.300Z,85.80
2018-04-25T04:38:07.808Z,85.80
2018-04-25T04:40:35.362Z,85.90
2018-04-25T04:43:02.873Z,85.80
2018-04-25T04:45:30.381Z,86.20
2018-04-25T04:47:57.895Z,86.60
2018-04-25T04:50:25.516Z,87.00
2018-04-25T04:52:53.038Z,87.50
2018-04-25T04:55:20.575Z,88.00
2018-04-25T04:57:48.049Z,88.30
2018-04-25T05:00:16.335Z,89.00
2018-04-25T05:02:43.878Z,89.00
2018-04-25T05:05:12.390Z,89.30
2018-04-25T05:07:39.902Z,89.20
2018-04-25T05:10:07.435Z,89.50
2018-04-25T05:12:35.013Z,89.60
2018-04-25T05:15:02.525Z,89.60
2018-04-25T05:17:30.050Z,89.80
2018-04-25T05:19:58.409Z,90.10
2018-04-25T05:22:26.796Z,90.10
2018-04-25T05:24:54.378Z,90.00
2018-04-25T05:27:22.642Z,89.70
2018-04-25T05:29:55.900Z,90.10
2018-04-25T05:32:23.459Z,90.10
2018-04-25T05:34:50.953Z,89.00
2018-04-25T05:37:19.217Z,89.30
2018-04-25T05:39:47.572Z,90.10
2018-04-25T05:42:15.152Z,89.40
2018-04-25T05:44:42.722Z,89.70
2018-04-25T05:47:10.998Z,89.70
2018-04-25T05:49:39.330Z,89.90
2018-04-25T05:52:07.166Z,89.90
2018-04-25T05:54:35.432Z,89.90
2018-04-25T05:57:02.969Z,89.90
2018-04-25T05:59:31.321Z,89.50
2018-04-25T06:01:58.816Z,89.60
2018-04-25T06:04:27.514Z,89.50
2018-04-25T06:06:55.194Z,89.50
2018-04-25T06:09:22.676Z,90.00
2018-04-25T06:11:50.179Z,89.60
2018-04-25T06:14:19.643Z,89.50
2018-04-25T06:16:47.157Z,89.50
2018-04-25T06:19:14.689Z,89.90
2018-04-25T06:21:42.941Z,90.50
2018-04-25T06:24:10.436Z,90.40
2018-04-25T06:26:38.078Z,90.50
2018-04-25T06:29:05.577Z,90.60
2018-04-25T06:31:33.094Z,90.60
2018-04-25T06:34:00.701Z,90.40
2018-04-25T06:36:28.197Z,90.40
2018-04-25T06:38:55.776Z,90.60
2018-04-25T06:41:24.480Z,90.90
2018-04-25T06:43:52.005Z,90.90
2018-04-25T06:46:19.485Z,90.90
2018-04-25T06:48:47.761Z,91.10
2018-04-25T06:51:16.029Z,91.20
2018-04-25T06:53:43.713Z,91.20
2018-04-25T06:56:11.973Z,91.40
2018-04-25T06:58:39.452Z,91.40
2018-04-25T07:01:06.960Z,91.60
2018-04-25T07:03:34.448Z,92.10
2018-04-25T07:06:02.752Z,93.00
2018-04-25T07:08:30.253Z,93.00
2018-04-25T07:10:58.546Z,94.00
2018-04-25T07:13:26.159Z,93.90
2018-04-25T07:15:53.580Z,93.90
2018-04-25T07:18:21.173Z,94.00
2018-04-25T07:20:48.687Z,94.20
2018-04-25T07:23:16.967Z,94.00
2018-04-25T07:25:45.250Z,93.50
2018-04-25T07:28:13.513Z,93.30
2018-04-25T07:30:41.278Z,93.30
2018-04-25T07:33:09.554Z,93.00
2018-04-25T07:35:38.098Z,92.80
2018-04-25T07:38:05.608Z,93.10
2018-04-25T07:40:33.897Z,92.60
2018-04-25T07:43:01.404Z,92.60
2018-04-25T07:45:28.889Z,92.50
2018-04-25T07:47:57.157Z,92.60
2018-04-25T07:50:24.724Z,92.60
2018-04-25T07:52:53.102Z,93.30
2018-04-25T07:55:21.380Z,93.40
2018-04-25T07:57:49.788Z,93.10
2018-04-25T08:00:17.441Z,93.10
2018-04-25T08:02:45.005Z,93.00
2018-04-25T08:05:12.586Z,93.30
2018-04-25T08:07:40.091Z,92.50
2018-04-25T08:10:08.361Z,90.70
2018-04-25T08:12:48.982Z,88.30
2018-04-25T08:15:28.225Z,88.20
2018-04-25T08:18:08.079Z,86.20
2018-04-25T08:23:37.116Z,84.30
2018-04-25T08:26:04.678Z,84.20
2018-04-25T08:28:32.845Z,84.80
2018-04-25T08:31:00.376Z,85.10
2018-04-25T08:33:27.925Z,86.70
2018-04-25T08:35:55.969Z,84.90
2018-04-25T08:38:24.223Z,82.60
2018-04-25T08:40:52.605Z,74.20
2018-04-25T08:43:20.925Z,72.30
2018-04-25T08:45:48.436Z,72.30
2018-04-25T08:48:15.945Z,72.50
2018-04-25T08:50:44.268Z,73.90
2018-04-25T08:53:12.984Z,73.70
2018-04-25T08:55:40.548Z,73.60
2018-04-25T08:58:08.061Z,70.50
2018-04-25T09:00:36.393Z,68.00
2018-04-25T09:03:03.901Z,67.90
2018-04-25T09:05:32.200Z,67.20
2018-04-25T09:07:59.762Z,67.10
2018-04-25T09:10:27.313Z,66.70
2018-04-25T09:12:56.399Z,62.90
2018-04-25T09:15:24.800Z,60.60
2018-04-25T09:17:52.332Z,60.60
2018-04-25T09:20:20.597Z,61.00
2018-04-25T09:22:48.122Z,61.00
2018-04-25T09:25:15.605Z,60.20
2018-04-25T09:27:43.116Z,60.40
2018-04-25T09:30:10.616Z,62.30
2018-04-25T09:32:38.225Z,63.90
2018-04-25T09:35:05.737Z,64.40
2018-04-25T09:37:33.334Z,63.70
2018-04-25T09:40:00.856Z,63.40
2018-04-25T09:42:28.388Z,61.40
2018-04-25T09:44:55.995Z,61.70
2018-04-25T09:47:24.239Z,57.90
2018-04-25T09:49:52.629Z,57.90
2018-04-25T09:52:20.135Z,58.80
2018-04-25T09:54:47.617Z,57.60
2018-04-25T09:57:15.152Z,55.80
2018-04-25T09:59:43.072Z,56.10
2018-04-25T10:02:17.159Z,57.40
2018-04-25T10:04:44.787Z,57.40
2018-04-25T10:07:12.625Z,56.30
2018-04-25T10:09:40.876Z,55.50
2018-04-25T10:12:08.421Z,55.50
2018-04-25T10:14:35.917Z,57.20
2018-04-25T10:17:04.270Z,59.30
2018-04-25T10:19:32.699Z,60.50
2018-04-25T10:22:00.346Z,60.40
2018-04-25T10:24:27.868Z,62.70
2018-04-25T10:26:56.892Z,65.80
2018-04-25T10:29:25.166Z,66.50
2018-04-25T10:31:53.502Z,67.60
2018-04-25T10:34:20.966Z,67.60
2018-04-25T10:36:50.026Z,67.30
2018-04-25T10:39:17.575Z,67.20
2018-04-25T10:41:45.089Z,66.90
2018-04-25T10:44:13.504Z,65.60
2018-04-25T10:46:40.894Z,65.60
2018-04-25T10:49:08.428Z,65.20
2018-04-25T10:51:37.453Z,65.20
2018-04-25T10:54:05.045Z,65.10
2018-04-25T10:56:33.356Z,65.40
2018-04-25T10:59:00.864Z,65.40
2018-04-25T11:01:29.172Z,65.50
2018-04-25T11:03:56.673Z,64.80
2018-04-25T11:06:24.205Z,63.70
2018-04-25T11:08:51.760Z,63.60
2018-04-25T11:11:19.273Z,64.30
2018-04-25T11:13:48.260Z,65.90
2018-04-25T11:16:16.553Z,65.90
2018-04-25T11:18:44.810Z,67.80
2018-04-25T11:21:13.948Z,66.80
2018-04-25T11:23:41.468Z,66.80
2018-04-25T11:26:08.981Z,64.80
2018-04-25T11:28:36.526Z,63.50
2018-04-25T11:31:04.065Z,61.00
2018-04-25T11:33:32.317Z,59.90
2018-04-25T11:35:59.885Z,59.80
2018-04-25T11:38:28.323Z,58.20
2018-04-25T11:40:55.936Z,58.20
2018-04-25T11:43:24.202Z,58.30
2018-04-25T11:45:53.324Z,58.60
2018-04-25T11:48:20.911Z,59.20
2018-04-25T11:50:48.461Z,59.10
2018-04-25T11:53:15.984Z,58.40
2018-04-25T11:55:44.277Z,56.50
2018-04-25T11:58:11.880Z,56.50
2018-04-25T12:00:39.380Z,57.00
2018-04-25T12:03:07.711Z,59.10
2018-04-25T12:05:35.219Z,59.20
2018-04-25T12:08:02.745Z,59.80
2018-04-25T12:10:30.309Z,60.00
2018-04-25T12:12:57.776Z,62.30
2018-04-25T12:15:26.006Z,62.50
2018-04-25T12:17:53.613Z,62.40
2018-04-25T12:20:22.071Z,63.40
2018-04-25T12:22:50.374Z,63.70
2018-04-25T12:25:18.664Z,64.20
2018-04-25T12:27:46.170Z,64.10
2018-04-25T12:30:13.707Z,64.20
2018-04-25T12:32:41.204Z,64.70
2018-04-25T12:35:10.247Z,63.60
2018-04-25T12:37:37.750Z,63.60
2018-04-25T12:40:05.537Z,62.40
2018-04-25T12:42:33.834Z,62.40
2018-04-25T12:45:01.363Z,62.40
2018-04-25T12:47:30.470Z,63.70
2018-04-25T12:49:58.822Z,63.90
2018-04-25T12:52:26.317Z,63.90
2018-04-25T12:54:53.875Z,64.20
2018-04-25T12:57:21.382Z,64.10
2018-04-25T12:59:48.911Z,64.40
2018-04-25T13:02:16.441Z,64.60
2018-04-25T13:04:44.733Z,65.00
2018-04-25T13:07:12.209Z,64.90
2018-04-25T13:09:39.716Z,64.60
2018-04-25T13:12:08.000Z,65.30
2018-04-25T13:14:36.291Z,63.50
2018-04-25T13:17:04.555Z,62.90
2018-04-25T13:19:32.841Z,62.80
2018-04-25T13:22:01.213Z,62.70
2018-04-25T13:24:29.477Z,61.30
2018-04-25T13:26:57.803Z,60.80
2018-04-25T13:29:26.028Z,60.50
2018-04-25T13:31:54.347Z,59.60
2018-04-25T13:34:21.827Z,59.50
2018-04-25T13:36:49.367Z,60.00
2018-04-25T13:39:16.902Z,60.10
2018-04-25T13:41:44.419Z,60.80
2018-04-25T13:44:11.975Z,61.70
2018-04-25T13:46:39.473Z,61.10
2018-04-25T13:49:06.979Z,61.70
2018-04-25T13:51:34.464Z,60.40
2018-04-25T13:54:02.758Z,58.60
2018-04-25T13:56:31.070Z,58.50
2018-04-25T13:58:58.593Z,58.40
2018-04-25T14:01:26.927Z,56.60
2018-04-25T14:03:54.517Z,56.50
2018-04-25T14:06:22.796Z,57.50
2018-04-25T14:08:51.411Z,57.90
2018-04-25T14:11:18.939Z,57.90
2018-04-25T14:13:47.219Z,58.10
2018-04-25T14:16:15.513Z,59.00
2018-04-25T14:18:43.017Z,59.00
2018-04-25T14:21:10.541Z,59.20
2018-04-25T14:23:38.113Z,61.20
2018-04-25T14:26:05.750Z,60.10
2018-04-25T14:28:33.269Z,60.90
2018-04-25T14:31:00.752Z,60.30
2018-04-25T14:33:28.347Z,61.10
2018-04-25T14:35:55.872Z,60.80
2018-04-25T14:38:24.154Z,62.50
2018-04-25T14:40:51.828Z,62.50
2018-04-25T14:43:19.334Z,60.90
2018-04-25T14:45:46.934Z,61.10
2018-04-25T14:48:15.181Z,59.50
2018-04-25T14:50:43.464Z,59.80
2018-04-25T14:53:11.752Z,59.90
2018-04-25T14:55:40.079Z,60.10
2018-04-25T14:58:07.633Z,60.00
2018-04-25T15:00:35.163Z,59.30
2018-04-25T15:03:02.664Z,59.30
2018-04-25T15:05:30.556Z,57.60
2018-04-25T15:07:58.038Z,55.30
2018-04-25T15:10:25.544Z,54.10
2018-04-25T15:12:53.351Z,53.70
2018-04-25T15:15:21.627Z,53.80
2018-04-25T15:17:49.430Z,53.70
2018-04-25T15:20:16.954Z,53.60
2018-04-25T15:22:45.216Z,53.10
2018-04-25T15:25:13.545Z,53.20
2018-04-25T15:27:41.367Z,53.20
2018-04-25T15:30:09.692Z,53.90
2018-04-25T15:32:37.264Z,53.90
2018-04-25T15:35:04.810Z,53.80
2018-04-25T15:37:32.372Z,54.60
2018-04-25T15:39:59.875Z,54.90
2018-04-25T15:42:28.524Z,55.90
2018-04-25T15:44:56.048Z,55.80
2018-04-25T15:47:23.706Z,57.60
2018-04-25T15:49:51.275Z,59.10
2018-04-25T15:52:18.840Z,59.70
2018-04-25T15:54:46.656Z,59.50
2018-04-25T15:57:14.949Z,59.90
2018-04-25T15:59:42.484Z,59.80
2018-04-25T16:02:10.076Z,59.50
2018-04-25T16:04:37.616Z,59.70
2018-04-25T16:07:05.910Z,59.60
2018-04-25T16:09:33.415Z,59.60
2018-04-25T16:12:01.710Z,59.50
2018-04-25T16:14:30.733Z,58.90
2018-04-25T16:16:58.244Z,58.90
2018-04-25T16:19:25.832Z,58.90
2018-04-25T16:21:54.097Z,59.70
2018-04-25T16:24:21.624Z,59.60
2018-04-25T16:26:49.912Z,58.70
2018-04-25T16:29:17.401Z,58.80
2018-04-25T16:31:45.757Z,57.70
2018-04-25T16:34:13.240Z,57.70
2018-04-25T16:36:41.519Z,58.10
2018-04-25T16:39:09.820Z,57.80
2018-04-25T16:41:37.420Z,57.80
2018-04-25T16:44:04.963Z,57.60
2018-04-25T16:46:32.596Z,57.80
2018-04-25T16:49:00.228Z,58.00
2018-04-25T16:51:28.530Z,58.70
2018-04-25T16:53:56.064Z,58.70
2018-04-25T16:56:24.337Z,59.70
2018-04-25T16:58:52.670Z,59.30
2018-04-25T17:01:20.171Z,59.30
2018-04-25T17:03:48.454Z,58.70
2018-04-25T17:06:17.180Z,59.00
2018-04-25T17:08:44.700Z,58.90
2018-04-25T17:11:12.971Z,63.30
2018-04-25T17:13:41.348Z,61.00
2018-04-25T17:16:09.617Z,61.90
2018-04-25T17:18:37.897Z,59.70
2018-04-25T17:21:05.501Z,59.60
2018-04-25T17:23:33.002Z,61.70
2018-04-25T17:26:02.108Z,60.90
2018-04-25T17:28:30.376Z,61.30
2018-04-25T17:30:58.680Z,61.50
2018-04-25T17:33:26.931Z,59.00
2018-04-25T17:35:55.216Z,60.30
2018-04-25T17:38:23.519Z,60.50
2018-04-25T17:40:51.553Z,60.50
2018-04-25T17:43:19.878Z,61.00
2018-04-25T17:45:47.509Z,60.10
2018-04-25T17:48:15.169Z,60.60
2018-04-25T17:50:42.688Z,59.90
2018-04-25T17:53:10.226Z,61.30
2018-04-25T17:55:37.809Z,60.40
2018-04-25T17:58:05.412Z,61.00
2018-04-25T18:00:32.908Z,61.10
2018-04-25T18:03:00.449Z,62.10
2018-04-25T18:05:27.941Z,60.80
2018-04-25T18:07:55.537Z,62.30
2018-04-25T18:10:23.803Z,61.70
2018-04-25T18:12:52.058Z,61.10
2018-04-25T18:15:19.587Z,61.10
2018-04-25T18:17:47.078Z,62.20
2018-04-25T18:20:15.372Z,62.20
2018-04-25T18:22:43.691Z,63.50
2018-04-25T18:25:11.186Z,63.40
2018-04-25T18:27:38.687Z,63.40
2018-04-25T18:30:06.601Z,63.50
2018-04-25T18:32:34.109Z,62.80
2018-04-25T18:35:01.614Z,63.40
2018-04-25T18:37:29.138Z,63.80
2018-04-25T18:39:56.719Z,63.60
2018-04-25T18:42:24.722Z,63.50
2018-04-25T18:44:53.046Z,64.20
2018-04-25T18:47:20.536Z,64.20
2018-04-25T18:49:48.154Z,63.40
2018-04-25T18:52:15.666Z,64.30
2018-04-25T18:54:43.258Z,64.10
2018-04-25T18:57:11.647Z,64.90
2018-04-25T18:59:39.319Z,65.80
2018-04-25T19:02:06.864Z,65.10
2018-04-25T19:04:34.424Z,65.50
2018-04-25T19:07:02.756Z,65.20
2018-04-25T19:09:30.317Z,66.50
2018-04-25T19:11:57.826Z,66.90
2018-04-25T19:14:25.350Z,67.00
2018-04-25T19:16:52.900Z,67.90
2018-04-25T19:19:21.210Z,67.20
2018-04-25T19:21:48.709Z,67.10
2018-04-25T19:24:16.221Z,67.90
2018-04-25T19:26:43.787Z,68.80
2018-04-25T19:29:11.295Z,68.80
2018-04-25T19:31:38.884Z,69.10
2018-04-25T19:34:07.141Z,70.30
2018-04-25T19:36:34.653Z,70.20
2018-04-25T19:39:02.937Z,70.70
2018-04-25T19:41:30.462Z,70.40
2018-04-25T19:43:58.007Z,70.80
2018-04-25T19:46:26.285Z,71.80
2018-04-25T19:48:54.633Z,70.40
2018-04-25T19:51:22.169Z,70.40
2018-04-25T19:53:49.815Z,71.10
2018-04-25T19:58:57.605Z,70.30
2018-04-25T20:01:25.881Z,70.80
2018-04-25T20:03:54.174Z,70.80
2018-04-25T20:06:21.709Z,70.70
2018-04-25T20:08:50.045Z,70.70
2018-04-25T20:11:17.534Z,70.60
2018-04-25T20:13:45.075Z,70.80
2018-04-25T20:16:12.578Z,70.80
2018-04-25T20:18:40.885Z,70.90
2018-04-25T20:21:09.300Z,70.60
2018-04-25T20:23:36.879Z,70.50
2018-04-25T20:26:05.872Z,68.60
2018-04-25T20:28:34.177Z,68.10
2018-04-25T20:31:01.661Z,68.10
2018-04-25T20:33:29.252Z,67.60
2018-04-25T20:35:56.765Z,66.40
2018-04-25T20:38:25.699Z,65.90
2018-04-25T20:40:53.979Z,65.90
2018-04-25T20:43:22.639Z,65.90
2018-04-25T20:45:50.129Z,65.80
2018-04-25T20:48:18.418Z,65.80
2018-04-25T20:50:45.957Z,65.80
2018-04-25T20:53:14.380Z,65.50
2018-04-25T20:55:44.594Z,65.30
2018-04-25T20:58:12.088Z,65.50
2018-04-25T21:00:39.984Z,65.20
2018-04-25T21:03:08.297Z,65.30
2018-04-25T21:05:35.795Z,65.20
2018-04-25T21:08:03.310Z,65.00
2018-04-25T21:10:30.804Z,64.90
2018-04-25T21:12:58.401Z,64.70
2018-04-25T21:15:25.904Z,65.70
2018-04-25T21:17:53.452Z,65.00
2018-04-25T21:20:20.942Z,65.00
2018-04-25T21:22:48.533Z,64.70
2018-04-25T21:25:16.191Z,64.80
2018-04-25T21:27:44.500Z,64.60
2018-04-25T21:30:12.032Z,64.60
2018-04-25T21:32:40.295Z,64.40
2018-04-25T21:35:09.532Z,63.60
2018-04-25T21:37:37.011Z,63.60
2018-04-25T21:40:04.505Z,63.50
2018-04-25T21:42:32.892Z,63.90
2018-04-25T21:45:01.140Z,63.90
2018-04-25T21:47:28.664Z,63.90
2018-04-25T21:49:56.159Z,64.10
2018-04-25T21:52:23.665Z,64.60
2018-04-25T21:54:51.199Z,64.10
2018-04-25T21:57:19.503Z,64.60
2018-04-25T21:59:47.042Z,64.60
2018-04-25T22:02:14.554Z,64.80
2018-04-25T22:04:42.049Z,64.70
2018-04-25T22:07:10.398Z,64.70
2018-04-25T22:09:37.925Z,65.40
2018-04-25T22:12:05.504Z,65.30
2018-04-25T22:14:32.999Z,64.40
2018-04-25T22:17:01.286Z,65.00
2018-04-25T22:19:29.546Z,64.70
2018-04-25T22:21:57.875Z,65.50
2018-04-25T22:24:25.454Z,65.20
2018-04-25T22:26:52.964Z,65.00
2018-04-25T22:29:20.452Z,65.20
2018-04-25T22:31:47.967Z,65.20
2018-04-25T22:34:16.242Z,65.80
2018-04-25T22:36:44.564Z,65.90
2018-04-25T22:39:12.070Z,65.90
2018-04-25T22:41:40.799Z,65.20
2018-04-25T22:44:08.332Z,65.60
2018-04-25T22:46:35.869Z,65.60
2018-04-25T22:49:03.486Z,65.20
2018-04-25T22:51:31.117Z,65.20
2018-04-25T22:53:58.620Z,64.70
2018-04-25T22:56:26.128Z,65.10
2018-04-25T22:58:53.673Z,64.90
2018-04-25T23:01:22.065Z,65.40
2018-04-25T23:03:50.344Z,65.70
2018-04-25T23:06:18.599Z,65.40
2018-04-25T23:08:46.108Z,66.20
2018-04-25T23:11:13.606Z,65.20
2018-04-25T23:13:41.220Z,65.60
2018-04-25T23:16:08.776Z,65.30
2018-04-25T23:18:36.281Z,65.80
2018-04-25T23:21:03.940Z,65.70
2018-04-25T23:23:31.422Z,65.90
2018-04-25T23:25:59.759Z,66.00
2018-04-25T23:28:27.267Z,65.90
2018-04-25T23:30:55.538Z,65.90
2018-04-25T23:33:23.823Z,66.20
2018-04-25T23:35:52.108Z,66.20
2018-04-25T23:38:19.614Z,66.20
2018-04-25T23:40:47.903Z,66.90
2018-04-25T23:43:15.480Z,66.40
2018-04-25T23:45:43.770Z,66.70
2018-04-25T23:48:11.303Z,66.60
2018-04-25T23:50:38.835Z,66.70
2018-04-25T23:53:06.348Z,67.10
2018-04-25T23:55:33.884Z,67.00
2018-04-25T23:58:01.374Z,67.20
